sensor_id;sensor_type;location;lat;lon;timestamp;pressure;altitude;pressure_sealevel;temperature
73662;BMP280;61956;52.540;13.382;2023-04-15T11:13:22;104350.56;;;11.83
73662;BMP280;61956;52.540;13.382;2023-04-15T11:15:59;103411.25;;;11.75
73662;BMP280;61956;52.540;13.382;2023-04-15T11:18:32;102801.50;;;11.70
73662;BMP280;61956;52.540;13.382;2023-04-15T11:21:05;103048.56;;;11.70
73662;BMP280;61956;52.540;13.382;2023-04-15T11:23:38;103327.88;;;11.69
73662;BMP280;61956;52.540;13.382;2023-04-15T11:26:13;103273.25;;;11.69
73662;BMP280;61956;52.540;13.382;2023-04-15T11:28:49;103372.09;;;11.69
73662;BMP280;61956;52.540;13.382;2023-04-15T11:31:20;103087.31;;;11.65
73662;BMP280;61956;52.540;13.382;2023-04-15T11:33:55;103160.94;;;11.65
73662;BMP280;61956;52.540;13.382;2023-04-15T11:36:29;103518.72;;;11.68
73662;BMP280;61956;52.540;13.382;2023-04-15T11:39:06;103640.81;;;11.69
73662;BMP280;61956;52.540;13.382;2023-04-15T11:41:40;103352.25;;;11.68
73662;BMP280;61956;52.540;13.382;2023-04-15T11:44:18;102851.66;;;11.63
73662;BMP280;61956;52.540;13.382;2023-04-15T11:46:48;102391.84;;;11.60
73662;BMP280;61956;52.540;13.382;2023-04-15T11:49:28;102532.41;;;11.59
73662;BMP280;61956;52.540;13.382;2023-04-15T11:51:59;101922.13;;;11.54
73662;BMP280;61956;52.540;13.382;2023-04-15T11:54:29;101814.97;;;11.52
73662;BMP280;61956;52.540;13.382;2023-04-15T11:57:00;102429.78;;;11.55
73662;BMP280;61956;52.540;13.382;2023-04-15T11:59:43;102663.41;;;11.58
73662;BMP280;61956;52.540;13.382;2023-04-15T12:02:12;102412.41;;;11.55
73662;BMP280;61956;52.540;13.382;2023-04-15T12:04:48;102190.66;;;11.55
73662;BMP280;61956;52.540;13.382;2023-04-15T12:07:17;103107.03;;;11.59
73662;BMP280;61956;52.540;13.382;2023-04-15T12:09:54;103450.78;;;11.62
73662;BMP280;61956;52.540;13.382;2023-04-15T12:12:28;102528.38;;;11.56
73662;BMP280;61956;52.540;13.382;2023-04-15T12:15:01;103057.47;;;11.60
73662;BMP280;61956;52.540;13.382;2023-04-15T12:17:31;102852.19;;;11.59
73662;BMP280;61956;52.540;13.382;2023-04-15T12:20:02;103629.09;;;11.65
73662;BMP280;61956;52.540;13.382;2023-04-15T12:22:36;104370.72;;;11.72
73662;BMP280;61956;52.540;13.382;2023-04-15T12:25:06;104514.41;;;11.75
73662;BMP280;61956;52.540;13.382;2023-04-15T12:27:36;105054.38;;;11.81
73662;BMP280;61956;52.540;13.382;2023-04-15T12:30:08;105711.63;;;11.88
73662;BMP280;61956;52.540;13.382;2023-04-15T12:32:38;105440.72;;;11.90
73662;BMP280;61956;52.540;13.382;2023-04-15T12:35:10;105908.25;;;11.94
73662;BMP280;61956;52.540;13.382;2023-04-15T12:37:39;107620.00;;;12.09
73662;BMP280;61956;52.540;13.382;2023-04-15T12:40:09;106030.78;;;12.05
73662;BMP280;61956;52.540;13.382;2023-04-15T12:42:39;104391.31;;;11.93
73662;BMP280;61956;52.540;13.382;2023-04-15T12:45:11;103062.16;;;11.80
73662;BMP280;61956;52.540;13.382;2023-04-15T12:47:40;103350.91;;;11.80
73662;BMP280;61956;52.540;13.382;2023-04-15T12:50:09;103532.19;;;11.79
73662;BMP280;61956;52.540;13.382;2023-04-15T12:52:38;103170.75;;;11.78
73662;BMP280;61956;52.540;13.382;2023-04-15T12:55:08;103528.78;;;11.79
73662;BMP280;61956;52.540;13.382;2023-04-15T12:57:37;105390.22;;;11.92
73662;BMP280;61956;52.540;13.382;2023-04-15T13:00:10;104734.13;;;11.92
73662;BMP280;61956;52.540;13.382;2023-04-15T13:02:42;105141.63;;;11.96
73662;BMP280;61956;52.540;13.382;2023-04-15T13:05:13;104394.06;;;11.91
73662;BMP280;61956;52.540;13.382;2023-04-15T13:07:43;103576.56;;;11.86
73662;BMP280;61956;52.540;13.382;2023-04-15T13:10:12;104270.25;;;11.89
73662;BMP280;61956;52.540;13.382;2023-04-15T13:12:41;104506.81;;;11.92
73662;BMP280;61956;52.540;13.382;2023-04-15T13:15:14;105233.47;;;11.98
73662;BMP280;61956;52.540;13.382;2023-04-15T13:17:45;105221.13;;;12.00
73662;BMP280;61956;52.540;13.382;2023-04-15T13:20:15;104823.72;;;11.99
73662;BMP280;61956;52.540;13.382;2023-04-15T13:22:44;103559.69;;;11.90
73662;BMP280;61956;52.540;13.382;2023-04-15T13:25:13;103192.50;;;11.85
73662;BMP280;61956;52.540;13.382;2023-04-15T13:27:42;103881.53;;;11.90
73662;BMP280;61956;52.540;13.382;2023-04-15T13:30:16;102883.31;;;11.82
73662;BMP280;61956;52.540;13.382;2023-04-15T13:32:45;101891.09;;;11.73
73662;BMP280;61956;52.540;13.382;2023-04-15T13:35:14;102059.47;;;11.71
73662;BMP280;61956;52.540;13.382;2023-04-15T13:37:43;102022.50;;;11.69
73662;BMP280;61956;52.540;13.382;2023-04-15T13:40:13;102778.56;;;11.73
73662;BMP280;61956;52.540;13.382;2023-04-15T13:42:42;103033.09;;;11.76
73662;BMP280;61956;52.540;13.382;2023-04-15T13:45:11;103017.50;;;11.76
73662;BMP280;61956;52.540;13.382;2023-04-15T13:47:43;102508.13;;;11.73
73662;BMP280;61956;52.540;13.382;2023-04-15T13:50:12;102078.09;;;11.68
73662;BMP280;61956;52.540;13.382;2023-04-15T13:52:42;102405.50;;;11.69
73662;BMP280;61956;52.540;13.382;2023-04-15T13:55:11;102008.09;;;11.66
73662;BMP280;61956;52.540;13.382;2023-04-15T13:57:40;101764.94;;;11.63
73662;BMP280;61956;52.540;13.382;2023-04-15T14:00:10;102031.66;;;11.65
73662;BMP280;61956;52.540;13.382;2023-04-15T14:02:43;101814.53;;;11.62
73662;BMP280;61956;52.540;13.382;2023-04-15T14:05:12;101537.66;;;11.59
73662;BMP280;61956;52.540;13.382;2023-04-15T14:07:41;102419.03;;;11.65
73662;BMP280;61956;52.540;13.382;2023-04-15T14:10:11;102653.88;;;11.65
73662;BMP280;61956;52.540;13.382;2023-04-15T14:12:40;103434.00;;;11.73
73662;BMP280;61956;52.540;13.382;2023-04-15T14:15:23;103161.84;;;11.72
73662;BMP280;61956;52.540;13.382;2023-04-15T14:18:01;102146.69;;;11.67
73662;BMP280;61956;52.540;13.382;2023-04-15T14:20:30;101777.38;;;11.61
73662;BMP280;61956;52.540;13.382;2023-04-15T14:22:59;101961.91;;;11.61
73662;BMP280;61956;52.540;13.382;2023-04-15T14:25:28;102732.69;;;11.66
73662;BMP280;61956;52.540;13.382;2023-04-15T14:27:57;102282.25;;;11.63
73662;BMP280;61956;52.540;13.382;2023-04-15T14:30:26;102454.63;;;11.64
73662;BMP280;61956;52.540;13.382;2023-04-15T14:32:55;101851.16;;;11.60
73662;BMP280;61956;52.540;13.382;2023-04-15T14:35:27;101815.75;;;11.59
73662;BMP280;61956;52.540;13.382;2023-04-15T14:37:57;101730.19;;;11.58
73662;BMP280;61956;52.540;13.382;2023-04-15T14:41:12;102036.69;;;11.59
73662;BMP280;61956;52.540;13.382;2023-04-15T14:43:42;101305.44;;;11.54
73662;BMP280;61956;52.540;13.382;2023-04-15T14:46:11;101520.31;;;11.53
73662;BMP280;61956;52.540;13.382;2023-04-15T14:48:40;101831.97;;;11.55
73662;BMP280;61956;52.540;13.382;2023-04-15T14:51:10;101994.69;;;11.56
73662;BMP280;61956;52.540;13.382;2023-04-15T14:53:42;101544.69;;;11.52
73662;BMP280;61956;52.540;13.382;2023-04-15T14:56:14;101724.00;;;11.52
73662;BMP280;61956;52.540;13.382;2023-04-15T14:58:43;100979.72;;;11.48
73662;BMP280;61956;52.540;13.382;2023-04-15T15:01:12;100626.34;;;11.43
73662;BMP280;61956;52.540;13.382;2023-04-15T15:03:41;100449.41;;;11.40
73662;BMP280;61956;52.540;13.382;2023-04-15T15:06:10;100943.44;;;11.42
73662;BMP280;61956;52.540;13.382;2023-04-15T15:08:39;101309.53;;;11.43
73662;BMP280;61956;52.540;13.382;2023-04-15T15:11:09;101087.13;;;11.42
73662;BMP280;61956;52.540;13.382;2023-04-15T15:13:40;101026.56;;;11.42
73662;BMP280;61956;52.540;13.382;2023-04-15T15:16:10;101414.25;;;11.44
73662;BMP280;61956;52.540;13.382;2023-04-15T15:18:39;101285.34;;;11.43
73662;BMP280;61956;52.540;13.382;2023-04-15T15:21:09;101538.97;;;11.44
73662;BMP280;61956;52.540;13.382;2023-04-15T15:23:38;101073.53;;;11.40
73662;BMP280;61956;52.540;13.382;2023-04-15T15:26:07;101192.06;;;11.41
73662;BMP280;61956;52.540;13.382;2023-04-15T15:28:39;100923.16;;;11.38
73662;BMP280;61956;52.540;13.382;2023-04-15T15:31:10;100852.22;;;11.38
73662;BMP280;61956;52.540;13.382;2023-04-15T15:33:39;101145.75;;;11.38
73662;BMP280;61956;52.540;13.382;2023-04-15T15:36:09;101043.88;;;11.36
73662;BMP280;61956;52.540;13.382;2023-04-15T15:38:39;101088.03;;;11.36
73662;BMP280;61956;52.540;13.382;2023-04-15T15:41:08;100935.75;;;11.35
73662;BMP280;61956;52.540;13.382;2023-04-15T15:43:40;100884.84;;;11.34
73662;BMP280;61956;52.540;13.382;2023-04-15T15:46:10;100797.53;;;11.33
73662;BMP280;61956;52.540;13.382;2023-04-15T15:48:39;100896.50;;;11.31
73662;BMP280;61956;52.540;13.382;2023-04-15T15:51:08;100744.25;;;11.30
73662;BMP280;61956;52.540;13.382;2023-04-15T15:53:37;101045.31;;;11.32
73662;BMP280;61956;52.540;13.382;2023-04-15T15:56:06;101044.53;;;11.31
73662;BMP280;61956;52.540;13.382;2023-04-15T15:58:36;100892.31;;;11.30
73662;BMP280;61956;52.540;13.382;2023-04-15T16:01:08;100790.22;;;11.30
73662;BMP280;61956;52.540;13.382;2023-04-15T16:03:37;100548.16;;;11.28
73662;BMP280;61956;52.540;13.382;2023-04-15T16:06:06;100445.53;;;11.25
73662;BMP280;61956;52.540;13.382;2023-04-15T16:08:36;100436.19;;;11.24
73662;BMP280;61956;52.540;13.382;2023-04-15T16:11:05;100553.81;;;11.25
73662;BMP280;61956;52.540;13.382;2023-04-15T16:13:35;100792.50;;;11.26
73662;BMP280;61956;52.540;13.382;2023-04-15T16:16:07;100723.38;;;11.25
73662;BMP280;61956;52.540;13.382;2023-04-15T16:18:36;100752.97;;;11.24
73662;BMP280;61956;52.540;13.382;2023-04-15T16:21:05;100616.38;;;11.23
73662;BMP280;61956;52.540;13.382;2023-04-15T16:23:35;100714.25;;;11.23
73662;BMP280;61956;52.540;13.382;2023-04-15T16:26:05;100840.50;;;11.24
73662;BMP280;61956;52.540;13.382;2023-04-15T16:28:34;100756.59;;;11.23
73662;BMP280;61956;52.540;13.382;2023-04-15T16:31:03;100909.00;;;11.23
73662;BMP280;61956;52.540;13.382;2023-04-15T16:33:38;100960.72;;;11.24
73662;BMP280;61956;52.540;13.382;2023-04-15T16:36:07;101375.84;;;11.27
73662;BMP280;61956;52.540;13.382;2023-04-15T16:38:36;101514.28;;;11.28
73662;BMP280;61956;52.540;13.382;2023-04-15T16:41:06;101803.25;;;11.30
73662;BMP280;61956;52.540;13.382;2023-04-15T16:43:35;101553.06;;;11.29
73662;BMP280;61956;52.540;13.382;2023-04-15T16:46:04;101119.72;;;11.26
73662;BMP280;61956;52.540;13.382;2023-04-15T16:48:36;100789.56;;;11.23
73662;BMP280;61956;52.540;13.382;2023-04-15T16:51:05;100694.72;;;11.20
73662;BMP280;61956;52.540;13.382;2023-04-15T16:53:35;100951.59;;;11.22
73662;BMP280;61956;52.540;13.382;2023-04-15T16:56:05;100863.28;;;11.22
73662;BMP280;61956;52.540;13.382;2023-04-15T16:58:34;100689.78;;;11.19
73662;BMP280;61956;52.540;13.382;2023-04-15T17:01:03;101045.06;;;11.22
73662;BMP280;61956;52.540;13.382;2023-04-15T17:03:36;101447.19;;;11.25
73662;BMP280;61956;52.540;13.382;2023-04-15T17:06:06;101474.94;;;11.24
73662;BMP280;61956;52.540;13.382;2023-04-15T17:08:35;101730.72;;;11.28
73662;BMP280;61956;52.540;13.382;2023-04-15T17:11:05;101490.34;;;11.26
73662;BMP280;61956;52.540;13.382;2023-04-15T17:13:34;101390.81;;;11.25
73662;BMP280;61956;52.540;13.382;2023-04-15T17:16:03;100895.44;;;11.21
73662;BMP280;61956;52.540;13.382;2023-04-15T17:18:42;100852.31;;;11.20
73662;BMP280;61956;52.540;13.382;2023-04-15T17:21:17;100587.94;;;11.17
73662;BMP280;61956;52.540;13.382;2023-04-15T17:23:53;100507.72;;;11.15
73662;BMP280;61956;52.540;13.382;2023-04-15T17:26:23;100486.38;;;11.13
73662;BMP280;61956;52.540;13.382;2023-04-15T17:28:54;100552.88;;;11.14
73662;BMP280;61956;52.540;13.382;2023-04-15T17:31:29;100763.94;;;11.14
73662;BMP280;61956;52.540;13.382;2023-04-15T17:34:21;100748.38;;;11.14
73662;BMP280;61956;52.540;13.382;2023-04-15T17:37:12;100710.47;;;11.13
73662;BMP280;61956;52.540;13.382;2023-04-15T17:40:02;100830.66;;;11.14
73662;BMP280;61956;52.540;13.382;2023-04-15T17:42:52;100846.47;;;11.12
73662;BMP280;61956;52.540;13.382;2023-04-15T17:45:41;100757.41;;;11.12
73662;BMP280;61956;52.540;13.382;2023-04-15T17:48:31;100646.78;;;11.11
73662;BMP280;61956;52.540;13.382;2023-04-15T17:51:27;100567.31;;;11.10
73662;BMP280;61956;52.540;13.382;2023-04-15T17:54:26;100371.31;;;11.07
73662;BMP280;61956;52.540;13.382;2023-04-15T17:57:15;100286.13;;;11.04
73662;BMP280;61956;52.540;13.382;2023-04-15T18:00:16;100206.66;;;11.03
73662;BMP280;61956;52.540;13.382;2023-04-15T18:03:07;100226.66;;;11.03
73662;BMP280;61956;52.540;13.382;2023-04-15T18:05:56;100321.91;;;11.02
73662;BMP280;61956;52.540;13.382;2023-04-15T18:08:48;100381.59;;;11.02
73662;BMP280;61956;52.540;13.382;2023-04-15T18:11:39;100239.06;;;11.01
73662;BMP280;61956;52.540;13.382;2023-04-15T18:14:29;100298.00;;;11.00
73662;BMP280;61956;52.540;13.382;2023-04-15T18:17:18;100345.47;;;11.01
73662;BMP280;61956;52.540;13.382;2023-04-15T18:20:09;100273.88;;;11.00
73662;BMP280;61956;52.540;13.382;2023-04-15T18:22:41;100035.81;;;10.95
73662;BMP280;61956;52.540;13.382;2023-04-15T18:25:13;100014.03;;;10.96
73662;BMP280;61956;52.540;13.382;2023-04-15T18:27:43;100079.94;;;10.95
73662;BMP280;61956;52.540;13.382;2023-04-15T18:30:12;100135.22;;;10.96
73662;BMP280;61956;52.540;13.382;2023-04-15T18:32:42;99994.53;;;10.94
73662;BMP280;61956;52.540;13.382;2023-04-15T18:35:11;99989.34;;;10.94
73662;BMP280;61956;52.540;13.382;2023-04-15T18:37:41;99978.19;;;10.93
73662;BMP280;61956;52.540;13.382;2023-04-15T18:40:13;99997.41;;;10.92
73662;BMP280;61956;52.540;13.382;2023-04-15T18:42:43;99976.13;;;10.90
73662;BMP280;61956;52.540;13.382;2023-04-15T18:45:12;99997.66;;;10.90
73662;BMP280;61956;52.540;13.382;2023-04-15T18:47:42;100009.84;;;10.90
73662;BMP280;61956;52.540;13.382;2023-04-15T18:50:11;99994.28;;;10.90
73662;BMP280;61956;52.540;13.382;2023-04-15T18:52:40;100120.63;;;10.89
73662;BMP280;61956;52.540;13.382;2023-04-15T18:55:13;100175.13;;;10.89
73662;BMP280;61956;52.540;13.382;2023-04-15T18:57:42;100146.59;;;10.89
73662;BMP280;61956;52.540;13.382;2023-04-15T19:00:12;100004.09;;;10.88
73662;BMP280;61956;52.540;13.382;2023-04-15T19:02:42;100101.69;;;10.89
73662;BMP280;61956;52.540;13.382;2023-04-15T19:05:11;100143.44;;;10.87
73662;BMP280;61956;52.540;13.382;2023-04-15T19:07:41;100200.50;;;10.87
73662;BMP280;61956;52.540;13.382;2023-04-15T19:10:13;103614.00;;;11.10
73662;BMP280;61956;52.540;13.382;2023-04-15T19:12:42;104556.34;;;11.24
73662;BMP280;61956;52.540;13.382;2023-04-15T19:15:11;101266.59;;;11.04
73662;BMP280;61956;52.540;13.382;2023-04-15T19:17:41;100476.78;;;10.97
73662;BMP280;61956;52.540;13.382;2023-04-15T19:20:10;101457.91;;;11.03
73662;BMP280;61956;52.540;13.382;2023-04-15T19:22:40;100790.00;;;10.96
73662;BMP280;61956;52.540;13.382;2023-04-15T19:25:09;102395.06;;;11.06
73662;BMP280;61956;52.540;13.382;2023-04-15T19:27:42;100502.94;;;10.95
73662;BMP280;61956;52.540;13.382;2023-04-15T19:30:11;100163.50;;;10.92
73662;BMP280;61956;52.540;13.382;2023-04-15T19:32:41;99765.69;;;10.86
73662;BMP280;61956;52.540;13.382;2023-04-15T19:35:11;99735.81;;;10.84
73662;BMP280;61956;52.540;13.382;2023-04-15T19:37:41;99788.47;;;10.84
73662;BMP280;61956;52.540;13.382;2023-04-15T19:40:13;99565.13;;;10.81
73662;BMP280;61956;52.540;13.382;2023-04-15T19:42:45;100276.78;;;10.86
73662;BMP280;61956;52.540;13.382;2023-04-15T19:45:15;99725.16;;;10.80
73662;BMP280;61956;52.540;13.382;2023-04-15T19:47:47;99526.72;;;10.78
73662;BMP280;61956;52.540;13.382;2023-04-15T19:50:20;99528.53;;;10.77
73662;BMP280;61956;52.540;13.382;2023-04-15T19:52:51;99607.13;;;10.78
73662;BMP280;61956;52.540;13.382;2023-04-15T19:55:23;99574.44;;;10.77
73662;BMP280;61956;52.540;13.382;2023-04-15T19:57:52;100177.59;;;10.79
73662;BMP280;61956;52.540;13.382;2023-04-15T20:00:22;101353.59;;;10.88
73662;BMP280;61956;52.540;13.382;2023-04-15T20:02:52;100451.13;;;10.83
73662;BMP280;61956;52.540;13.382;2023-04-15T20:05:23;99852.50;;;10.79
73662;BMP280;61956;52.540;13.382;2023-04-15T20:07:53;99671.47;;;10.76
73662;BMP280;61956;52.540;13.382;2023-04-15T20:10:25;100842.16;;;10.83
73662;BMP280;61956;52.540;13.382;2023-04-15T20:13:00;100139.69;;;10.78
73662;BMP280;61956;52.540;13.382;2023-04-15T20:15:29;99985.06;;;10.77
73662;BMP280;61956;52.540;13.382;2023-04-15T20:17:58;99697.66;;;10.74
73662;BMP280;61956;52.540;13.382;2023-04-15T20:20:28;99677.16;;;10.73
73662;BMP280;61956;52.540;13.382;2023-04-15T20:22:57;99820.56;;;10.73
73662;BMP280;61956;52.540;13.382;2023-04-15T20:25:30;99786.06;;;10.73
73662;BMP280;61956;52.540;13.382;2023-04-15T20:27:59;99799.81;;;10.73
73662;BMP280;61956;52.540;13.382;2023-04-15T20:30:29;100084.16;;;10.74
73662;BMP280;61956;52.540;13.382;2023-04-15T20:32:58;100002.94;;;10.74
73662;BMP280;61956;52.540;13.382;2023-04-15T20:35:27;99923.00;;;10.71
73662;BMP280;61956;52.540;13.382;2023-04-15T20:37:57;100357.31;;;10.75
73662;BMP280;61956;52.540;13.382;2023-04-15T20:40:30;100715.91;;;10.77
73662;BMP280;61956;52.540;13.382;2023-04-15T20:43:00;100610.31;;;10.77
73662;BMP280;61956;52.540;13.382;2023-04-15T20:45:29;100074.78;;;10.73
73662;BMP280;61956;52.540;13.382;2023-04-15T20:47:58;100213.03;;;10.74
73662;BMP280;61956;52.540;13.382;2023-04-15T20:50:28;101033.03;;;10.79
73662;BMP280;61956;52.540;13.382;2023-04-15T20:52:57;100194.09;;;10.73
73662;BMP280;61956;52.540;13.382;2023-04-15T20:55:29;100185.53;;;10.73
73662;BMP280;61956;52.540;13.382;2023-04-15T20:57:59;100042.31;;;10.71
73662;BMP280;61956;52.540;13.382;2023-04-15T21:00:28;100233.25;;;10.72
73662;BMP280;61956;52.540;13.382;2023-04-15T21:02:58;99881.72;;;10.69
73662;BMP280;61956;52.540;13.382;2023-04-15T21:05:27;100105.59;;;10.70
73662;BMP280;61956;52.540;13.382;2023-04-15T21:07:56;100075.47;;;10.69
73662;BMP280;61956;52.540;13.382;2023-04-15T21:10:25;99904.28;;;10.69
73662;BMP280;61956;52.540;13.382;2023-04-15T21:13:02;99926.13;;;10.68
73662;BMP280;61956;52.540;13.382;2023-04-15T21:15:32;100118.03;;;10.68
73662;BMP280;61956;52.540;13.382;2023-04-15T21:18:01;100511.28;;;10.69
73662;BMP280;61956;52.540;13.382;2023-04-15T21:20:30;100693.25;;;10.72
73662;BMP280;61956;52.540;13.382;2023-04-15T21:23:00;101346.72;;;10.75
73662;BMP280;61956;52.540;13.382;2023-04-15T21:25:29;101410.19;;;10.79
73662;BMP280;61956;52.540;13.382;2023-04-15T21:27:58;100530.38;;;10.74
73662;BMP280;61956;52.540;13.382;2023-04-15T21:30:31;100649.72;;;10.74
73662;BMP280;61956;52.540;13.382;2023-04-15T21:33:00;100288.97;;;10.69
73662;BMP280;61956;52.540;13.382;2023-04-15T21:35:29;100678.47;;;10.73
73662;BMP280;61956;52.540;13.382;2023-04-15T21:37:58;100866.84;;;10.74
73662;BMP280;61956;52.540;13.382;2023-04-15T21:40:28;101162.25;;;10.77
73662;BMP280;61956;52.540;13.382;2023-04-15T21:42:57;100496.06;;;10.72
73662;BMP280;61956;52.540;13.382;2023-04-15T21:45:26;100791.59;;;10.74
73662;BMP280;61956;52.540;13.382;2023-04-15T21:47:58;101285.22;;;10.76
73662;BMP280;61956;52.540;13.382;2023-04-15T21:50:27;101839.03;;;10.81
73662;BMP280;61956;52.540;13.382;2023-04-15T21:52:56;101455.88;;;10.80
73662;BMP280;61956;52.540;13.382;2023-04-15T21:55:26;100862.25;;;10.76
73662;BMP280;61956;52.540;13.382;2023-04-15T21:57:55;101313.31;;;10.79
73662;BMP280;61956;52.540;13.382;2023-04-15T22:00:24;100679.25;;;10.73
73662;BMP280;61956;52.540;13.382;2023-04-15T22:02:53;102123.44;;;10.84
73662;BMP280;61956;52.540;13.382;2023-04-15T22:05:25;100966.81;;;10.76
73662;BMP280;61956;52.540;13.382;2023-04-15T22:07:54;100631.75;;;10.73
73662;BMP280;61956;52.540;13.382;2023-04-15T22:10:25;101370.66;;;10.77
73662;BMP280;61956;52.540;13.382;2023-04-15T22:12:54;100876.44;;;10.73
73662;BMP280;61956;52.540;13.382;2023-04-15T22:15:27;101444.09;;;10.78
73662;BMP280;61956;52.540;13.382;2023-04-15T22:17:56;101266.59;;;10.79
73662;BMP280;61956;52.540;13.382;2023-04-15T22:20:28;100077.31;;;10.68
73662;BMP280;61956;52.540;13.382;2023-04-15T22:22:58;100665.94;;;10.70
73662;BMP280;61956;52.540;13.382;2023-04-15T22:25:28;100152.00;;;10.66
73662;BMP280;61956;52.540;13.382;2023-04-15T22:27:58;100112.31;;;10.65
73662;BMP280;61956;52.540;13.382;2023-04-15T22:30:27;99786.00;;;10.62
73662;BMP280;61956;52.540;13.382;2023-04-15T22:32:57;99966.75;;;10.62
73662;BMP280;61956;52.540;13.382;2023-04-15T22:35:28;100021.22;;;10.62
73662;BMP280;61956;52.540;13.382;2023-04-15T22:37:59;101228.16;;;10.69
73662;BMP280;61956;52.540;13.382;2023-04-15T22:40:29;100154.28;;;10.62
73662;BMP280;61956;52.540;13.382;2023-04-15T22:42:58;99937.69;;;10.60
73662;BMP280;61956;52.540;13.382;2023-04-15T22:45:27;100390.31;;;10.62
73662;BMP280;61956;52.540;13.382;2023-04-15T22:47:56;100472.28;;;10.63
73662;BMP280;61956;52.540;13.382;2023-04-15T22:50:29;100549.91;;;10.65
73662;BMP280;61956;52.540;13.382;2023-04-15T22:52:59;101894.75;;;10.72
73662;BMP280;61956;52.540;13.382;2023-04-15T22:55:28;101798.50;;;10.74
73662;BMP280;61956;52.540;13.382;2023-04-15T22:57:57;100630.06;;;10.66
73662;BMP280;61956;52.540;13.382;2023-04-15T23:00:26;100104.44;;;10.60
73662;BMP280;61956;52.540;13.382;2023-04-15T23:02:56;101026.03;;;10.68
73662;BMP280;61956;52.540;13.382;2023-04-15T23:05:25;101084.91;;;10.67
73662;BMP280;61956;52.540;13.382;2023-04-15T23:07:57;103543.78;;;10.85
73662;BMP280;61956;52.540;13.382;2023-04-15T23:10:26;101500.84;;;10.74
73662;BMP280;61956;52.540;13.382;2023-04-15T23:12:55;100650.81;;;10.66
73662;BMP280;61956;52.540;13.382;2023-04-15T23:15:25;100396.06;;;10.64
73662;BMP280;61956;52.540;13.382;2023-04-15T23:17:54;99718.31;;;10.59
73662;BMP280;61956;52.540;13.382;2023-04-15T23:20:25;99677.31;;;10.56
73662;BMP280;61956;52.540;13.382;2023-04-15T23:22:56;100367.44;;;10.59
73662;BMP280;61956;52.540;13.382;2023-04-15T23:25:26;100197.28;;;10.58
73662;BMP280;61956;52.540;13.382;2023-04-15T23:27:55;99713.84;;;10.54
73662;BMP280;61956;52.540;13.382;2023-04-15T23:30:24;99670.81;;;10.53
73662;BMP280;61956;52.540;13.382;2023-04-15T23:32:53;99677.03;;;10.52
73662;BMP280;61956;52.540;13.382;2023-04-15T23:35:23;100570.97;;;10.57
73662;BMP280;61956;52.540;13.382;2023-04-15T23:37:52;100634.06;;;10.57
73662;BMP280;61956;52.540;13.382;2023-04-15T23:40:24;100948.47;;;10.59
73662;BMP280;61956;52.540;13.382;2023-04-15T23:42:53;99816.00;;;10.53
73662;BMP280;61956;52.540;13.382;2023-04-15T23:45:23;102489.53;;;10.69
73662;BMP280;61956;52.540;13.382;2023-04-15T23:47:54;103008.16;;;10.75
73662;BMP280;61956;52.540;13.382;2023-04-15T23:50:25;101541.38;;;10.69
73662;BMP280;61956;52.540;13.382;2023-04-15T23:52:55;101381.50;;;10.68
73662;BMP280;61956;52.540;13.382;2023-04-15T23:55:28;100681.03;;;10.61
73662;BMP280;61956;52.540;13.382;2023-04-15T23:57:57;100015.97;;;10.57
